createdAt,value
2022-09-16T00:00:16.831Z,98847.06
2022-09-16T00:01:48.878Z,98850.81
2022-09-16T00:03:21.063Z,98859.31
2022-09-16T00:04:53.891Z,98869.88
2022-09-16T00:06:28.323Z,98870.25
2022-09-16T00:08:00.457Z,98867.88
2022-09-16T00:09:32.571Z,98862.19
2022-09-16T00:11:04.686Z,98869.41
2022-09-16T00:12:37.227Z,98868.47
2022-09-16T00:14:09.749Z,98872.38
2022-09-16T00:15:42.989Z,98866.69
2022-09-16T00:17:15.045Z,98867.19
2022-09-16T00:18:47.940Z,98867.06
2022-09-16T00:20:20.123Z,98869.66
2022-09-16T00:21:52.197Z,98862.69
2022-09-16T00:23:24.283Z,98868.13
2022-09-16T00:24:56.701Z,98866.72
2022-09-16T00:26:29.920Z,98877.00
2022-09-16T00:28:02.170Z,98877.72
2022-09-16T00:29:34.273Z,98869.44
2022-09-16T00:31:06.924Z,98876.16
2022-09-16T00:32:39.026Z,98874.41
2022-09-16T00:34:11.264Z,98869.06
2022-09-16T00:35:43.343Z,98874.06
2022-09-16T00:37:15.775Z,98874.16
2022-09-16T00:38:51.315Z,98877.00
2022-09-16T00:40:23.480Z,98875.22
2022-09-16T00:41:55.631Z,98877.56
2022-09-16T00:43:28.059Z,98879.97
2022-09-16T00:45:02.176Z,98881.72
2022-09-16T00:46:48.107Z,98874.59
2022-09-16T00:48:22.585Z,98877.81
2022-09-16T00:49:56.896Z,98869.25
2022-09-16T00:51:29.151Z,98878.50
2022-09-16T00:53:01.493Z,98877.50
2022-09-16T00:54:35.712Z,98869.09
2022-09-16T00:56:09.761Z,98869.53
2022-09-16T00:57:42.312Z,98865.84
2022-09-16T00:59:18.477Z,98879.09
2022-09-16T01:00:53.154Z,98870.53
2022-09-16T01:02:25.745Z,98870.16
2022-09-16T01:04:00.554Z,98870.34
2022-09-16T01:05:33.619Z,98876.06
2022-09-16T01:07:05.726Z,98878.28
2022-09-16T01:08:38.297Z,98880.44
2022-09-16T01:10:10.466Z,98887.16
2022-09-16T01:11:42.561Z,98882.81
2022-09-16T01:13:15.578Z,98878.47
2022-09-16T01:14:53.890Z,98872.69
2022-09-16T01:16:39.324Z,98879.69
2022-09-16T01:18:46.904Z,98874.28
2022-09-16T01:20:19.307Z,98873.59
2022-09-16T01:22:02.064Z,98867.59
2022-09-16T01:24:04.024Z,98878.06
2022-09-16T01:25:55.005Z,98863.09
2022-09-16T01:27:42.073Z,98867.50
2022-09-16T01:29:17.085Z,98854.25
2022-09-16T01:30:52.431Z,98862.78
2022-09-16T01:32:43.149Z,98851.66
2022-09-16T01:34:17.883Z,98868.34
2022-09-16T01:35:56.245Z,98867.41
2022-09-16T01:37:43.473Z,98865.03
2022-09-16T01:39:18.522Z,98854.38
2022-09-16T01:41:09.309Z,98861.03
2022-09-16T01:42:54.532Z,98864.06
2022-09-16T01:44:27.091Z,98859.69
2022-09-16T01:46:05.380Z,98856.63
2022-09-16T01:47:49.565Z,98863.22
2022-09-16T01:49:40.340Z,98854.97
2022-09-16T01:51:19.687Z,98863.59
2022-09-16T01:52:52.254Z,98863.44
2022-09-16T01:54:29.967Z,98864.50
2022-09-16T01:56:05.329Z,98861.00
2022-09-16T01:57:40.042Z,98855.41
2022-09-16T01:59:22.190Z,98857.88
2022-09-16T02:00:58.473Z,98853.59
2022-09-16T02:02:30.771Z,98847.91
2022-09-16T02:04:09.229Z,98857.41
2022-09-16T02:05:51.064Z,98858.56
2022-09-16T02:07:25.753Z,98855.00
2022-09-16T02:08:59.717Z,98847.47
2022-09-16T02:10:35.630Z,98852.16
2022-09-16T02:12:10.489Z,98848.16
2022-09-16T02:13:43.931Z,98853.47
2022-09-16T02:15:22.135Z,98851.91
2022-09-16T02:16:57.419Z,98845.66
2022-09-16T02:18:32.596Z,98844.31
2022-09-16T02:20:15.638Z,98843.75
2022-09-16T02:21:49.547Z,98849.09
2022-09-16T02:23:27.046Z,98843.66
2022-09-16T02:25:00.077Z,98847.03
2022-09-16T02:26:35.017Z,98850.47
2022-09-16T02:28:11.257Z,98858.63
2022-09-16T02:29:47.075Z,98852.03
2022-09-16T02:31:23.723Z,98855.00
2022-09-16T02:32:58.561Z,98842.81
2022-09-16T02:34:32.494Z,98851.84
2022-09-16T02:36:05.664Z,98848.41
2022-09-16T02:37:42.239Z,98841.41
2022-09-16T02:39:16.417Z,98852.75
2022-09-16T02:40:51.183Z,98854.63
2022-09-16T02:42:23.831Z,98847.53
2022-09-16T02:43:56.368Z,98848.09
2022-09-16T02:45:36.353Z,98838.41
2022-09-16T02:47:12.069Z,98837.44
2022-09-16T02:49:07.396Z,98849.50
2022-09-16T02:50:47.738Z,98836.47
2022-09-16T02:52:28.647Z,98853.38
2022-09-16T02:54:19.982Z,98847.81
2022-09-16T02:56:14.642Z,98846.13
2022-09-16T02:57:47.103Z,98849.91
2022-09-16T02:59:19.398Z,98845.06
2022-09-16T03:00:53.873Z,98842.19
2022-09-16T03:02:26.220Z,98838.06
2022-09-16T03:03:58.357Z,98842.78
2022-09-16T03:05:31.179Z,98837.47
2022-09-16T03:07:05.426Z,98837.13
2022-09-16T03:08:38.171Z,98840.13
2022-09-16T03:10:11.310Z,98833.50
2022-09-16T03:12:01.973Z,98837.78
2022-09-16T03:13:40.417Z,98837.63
2022-09-16T03:15:24.659Z,98830.09
2022-09-16T03:17:00.150Z,98832.09
2022-09-16T03:18:50.221Z,98833.50
2022-09-16T03:20:40.415Z,98832.69
2022-09-16T03:22:12.671Z,98834.41
2022-09-16T03:23:54.146Z,98837.13
2022-09-16T03:25:26.406Z,98841.75
2022-09-16T03:27:08.156Z,98840.78
2022-09-16T03:28:59.362Z,98845.13
2022-09-16T03:30:38.651Z,98857.19
2022-09-16T03:32:25.196Z,98850.75
2022-09-16T03:34:09.754Z,98856.75
2022-09-16T03:35:46.997Z,98853.94
2022-09-16T03:37:20.062Z,98859.38
2022-09-16T03:38:53.627Z,98858.09
2022-09-16T03:40:29.731Z,98862.34
2022-09-16T03:42:05.299Z,98852.13
2022-09-16T03:43:37.453Z,98847.91
2022-09-16T03:45:20.329Z,98859.16
2022-09-16T03:46:52.736Z,98860.84
2022-09-16T03:48:24.811Z,98853.91
2022-09-16T03:49:56.866Z,98853.53
2022-09-16T03:51:29.048Z,98851.81
2022-09-16T03:53:01.482Z,98850.03
2022-09-16T03:54:34.337Z,98855.13
2022-09-16T03:56:06.577Z,98864.72
2022-09-16T03:57:38.707Z,98855.13
2022-09-16T03:59:11.213Z,98865.28
2022-09-16T04:00:43.357Z,98866.75
2022-09-16T04:02:15.672Z,98869.31
2022-09-16T04:03:47.720Z,98876.75
2022-09-16T04:05:20.147Z,98879.47
2022-09-16T04:06:52.202Z,98873.22
2022-09-16T04:08:24.351Z,98881.38
2022-09-16T04:09:56.358Z,98882.66
2022-09-16T04:11:31.670Z,98885.38
2022-09-16T04:13:03.750Z,98883.25
2022-09-16T04:14:36.080Z,98886.09
2022-09-16T04:16:08.169Z,98886.81
2022-09-16T04:17:40.811Z,98882.09
2022-09-16T04:19:13.534Z,98875.47
2022-09-16T04:20:45.665Z,98870.88
2022-09-16T04:22:17.651Z,98864.22
2022-09-16T04:23:50.403Z,98869.22
2022-09-16T04:25:22.470Z,98868.06
2022-09-16T04:26:54.539Z,98877.19
2022-09-16T04:28:27.172Z,98869.88
2022-09-16T04:29:59.910Z,98863.81
2022-09-16T04:31:31.906Z,98861.22
2022-09-16T04:33:04.174Z,98859.94
2022-09-16T04:34:36.486Z,98864.06
2022-09-16T04:36:13.389Z,98852.56
2022-09-16T04:37:45.523Z,98849.97
2022-09-16T04:39:17.641Z,98848.09
2022-09-16T04:40:50.041Z,98840.06
2022-09-16T04:42:22.483Z,98839.59
2022-09-16T04:43:58.228Z,98831.53
2022-09-16T04:45:30.373Z,98833.69
2022-09-16T04:47:02.363Z,98828.34
2022-09-16T04:48:35.216Z,98842.19
2022-09-16T04:50:07.318Z,98841.59
2022-09-16T04:51:39.552Z,98841.13
2022-09-16T04:53:11.619Z,98846.00
2022-09-16T04:54:44.020Z,98844.06
2022-09-16T04:56:17.615Z,98842.78
2022-09-16T04:57:50.423Z,98833.31
2022-09-16T04:59:22.427Z,98824.56
2022-09-16T05:00:54.784Z,98821.25
2022-09-16T05:02:28.678Z,98822.66
2022-09-16T05:04:02.324Z,98824.09
2022-09-16T05:05:34.354Z,98826.91
2022-09-16T05:07:06.867Z,98827.63
2022-09-16T05:08:38.922Z,98826.44
2022-09-16T05:10:11.205Z,98830.00
2022-09-16T05:11:43.210Z,98836.38
2022-09-16T05:13:15.546Z,98835.94
2022-09-16T05:14:47.646Z,98843.59
2022-09-16T05:16:21.324Z,98854.72
2022-09-16T05:17:53.432Z,98857.09
2022-09-16T05:19:25.949Z,98864.91
2022-09-16T05:20:58.956Z,98876.13
2022-09-16T05:22:31.203Z,98866.31
2022-09-16T05:24:04.208Z,98872.81
2022-09-16T05:25:36.827Z,98864.25
2022-09-16T05:27:09.008Z,98865.19
2022-09-16T05:28:41.123Z,98872.31
2022-09-16T05:30:15.041Z,98864.34
2022-09-16T05:31:47.649Z,98868.69
2022-09-16T05:33:20.192Z,98867.59
2022-09-16T05:34:52.335Z,98872.03
2022-09-16T05:36:24.865Z,98878.97
2022-09-16T05:37:57.245Z,98876.47
2022-09-16T05:39:29.552Z,98887.59
2022-09-16T05:41:02.886Z,98876.91
2022-09-16T05:42:34.938Z,98875.81
2022-09-16T05:44:08.323Z,98868.56
2022-09-16T05:45:40.340Z,98864.78
2022-09-16T05:47:12.454Z,98872.56
2022-09-16T05:48:44.560Z,98871.47
2022-09-16T05:50:17.333Z,98869.66
2022-09-16T05:51:49.642Z,98876.03
2022-09-16T05:53:21.907Z,98865.34
2022-09-16T05:54:53.979Z,98867.69
2022-09-16T05:56:27.550Z,98867.16
2022-09-16T05:57:59.534Z,98867.38
2022-09-16T05:59:31.976Z,98860.00
2022-09-16T06:01:06.178Z,98860.09
2022-09-16T06:02:38.934Z,98863.66
2022-09-16T06:04:14.923Z,98858.19
2022-09-16T06:05:47.128Z,98856.28
2022-09-16T06:07:19.130Z,98852.25
2022-09-16T06:08:52.413Z,98859.94
2022-09-16T06:10:24.456Z,98852.56
2022-09-16T06:12:01.707Z,98859.44
2022-09-16T06:13:34.825Z,98860.94
2022-09-16T06:15:07.522Z,98860.47
2022-09-16T06:16:40.035Z,98860.66
2022-09-16T06:18:15.933Z,98860.78
2022-09-16T06:19:47.964Z,98863.59
2022-09-16T06:21:20.522Z,98865.00
2022-09-16T06:22:52.985Z,98867.84
2022-09-16T06:24:25.110Z,98866.63
2022-09-16T06:26:16.164Z,98865.19
2022-09-16T06:27:48.635Z,98866.03
2022-09-16T06:29:20.682Z,98869.34
2022-09-16T06:31:01.315Z,98867.84
2022-09-16T06:32:33.828Z,98855.50
2022-09-16T06:34:07.171Z,98862.47
2022-09-16T06:35:39.226Z,98853.88
2022-09-16T06:37:13.336Z,98859.63
2022-09-16T06:38:45.897Z,98862.66
2022-09-16T06:40:18.357Z,98864.31
2022-09-16T06:41:50.469Z,98855.19
2022-09-16T06:43:22.567Z,98845.88
2022-09-16T06:44:54.630Z,98859.63
2022-09-16T06:46:27.844Z,98857.69
2022-09-16T06:48:00.989Z,98869.66
2022-09-16T06:49:33.455Z,98868.00
2022-09-16T06:51:07.030Z,98862.63
2022-09-16T06:52:39.515Z,98874.28
2022-09-16T06:54:12.059Z,98870.41
2022-09-16T06:55:44.168Z,98872.56
2022-09-16T06:57:16.479Z,98859.59
2022-09-16T06:58:50.485Z,98876.06
2022-09-16T07:00:22.519Z,98869.56
2022-09-16T07:01:54.712Z,98874.63
2022-09-16T07:03:26.829Z,98878.44
2022-09-16T07:04:59.262Z,98876.09
2022-09-16T07:07:04.839Z,98885.47
2022-09-16T07:08:25.284Z,98879.31
2022-09-16T07:09:57.388Z,98877.66
2022-09-16T07:11:30.120Z,98885.72
2022-09-16T07:13:02.200Z,98886.16
2022-09-16T07:14:34.562Z,98883.69
2022-09-16T07:16:15.227Z,98884.75
2022-09-16T07:17:47.795Z,98881.84
2022-09-16T07:19:19.984Z,98875.56
2022-09-16T07:20:52.313Z,98882.34
2022-09-16T07:22:24.984Z,98884.66
2022-09-16T07:23:58.858Z,98882.63
2022-09-16T07:25:35.729Z,98886.69
2022-09-16T07:27:08.164Z,98891.56
2022-09-16T07:28:41.156Z,98894.38
2022-09-16T07:30:13.822Z,98894.09
2022-09-16T07:31:46.194Z,98889.31
2022-09-16T07:33:18.479Z,98887.78
2022-09-16T07:34:50.628Z,98896.44
2022-09-16T07:36:24.205Z,98904.53
2022-09-16T07:37:56.215Z,98906.78
2022-09-16T07:39:29.085Z,98903.59
2022-09-16T07:41:20.643Z,98900.84
2022-09-16T07:42:53.086Z,98902.00
2022-09-16T07:44:25.829Z,98898.00
2022-09-16T07:45:58.718Z,98900.28
2022-09-16T07:47:30.982Z,98903.94
2022-09-16T07:49:05.492Z,98905.59
2022-09-16T07:50:38.272Z,98901.00
2022-09-16T07:52:11.421Z,98907.50
2022-09-16T07:53:43.892Z,98908.44
2022-09-16T07:55:17.489Z,98905.28
2022-09-16T07:56:49.580Z,98909.78
2022-09-16T07:58:22.660Z,98910.88
2022-09-16T07:59:56.817Z,98914.59
2022-09-16T08:01:31.852Z,98914.09
2022-09-16T08:03:06.082Z,98914.38
2022-09-16T08:04:38.425Z,98913.03
2022-09-16T08:06:12.778Z,98914.44
2022-09-16T08:07:45.167Z,98915.22
2022-09-16T08:11:09.984Z,98912.47
2022-09-16T08:12:42.326Z,98913.72
2022-09-16T08:14:14.791Z,98915.72
2022-09-16T08:15:46.985Z,98909.38
2022-09-16T08:17:19.118Z,98904.66
2022-09-16T08:18:52.749Z,98918.78
2022-09-16T08:20:26.236Z,98906.81
2022-09-16T08:21:58.338Z,98910.56
2022-09-16T08:23:31.035Z,98912.94
2022-09-16T08:25:03.241Z,98915.19
2022-09-16T08:26:36.030Z,98915.47
2022-09-16T08:28:14.990Z,98913.66
2022-09-16T08:29:47.500Z,98911.91
2022-09-16T08:31:19.742Z,98916.31
2022-09-16T08:32:56.594Z,98913.16
2022-09-16T08:34:28.856Z,98910.28
2022-09-16T08:36:01.877Z,98917.72
2022-09-16T08:37:34.633Z,98910.88
2022-09-16T08:39:07.104Z,98913.75
2022-09-16T08:40:43.844Z,98919.50
2022-09-16T08:42:16.106Z,98909.38
2022-09-16T08:44:07.171Z,98899.22
2022-09-16T08:45:54.464Z,98897.25
2022-09-16T08:47:42.774Z,98899.34
2022-09-16T08:49:22.670Z,98895.47
2022-09-16T08:50:56.736Z,98896.75
2022-09-16T08:52:47.416Z,98894.47
2022-09-16T08:54:32.325Z,98896.47
2022-09-16T08:56:07.305Z,98901.94
2022-09-16T08:57:41.116Z,98903.38
2022-09-16T08:59:17.915Z,98899.41
2022-09-16T09:00:55.014Z,98898.16
2022-09-16T09:02:36.910Z,98889.53
2022-09-16T09:04:09.512Z,98884.91
2022-09-16T09:05:44.533Z,98889.94
2022-09-16T09:07:16.568Z,98889.34
2022-09-16T09:08:58.637Z,98897.13
2022-09-16T09:10:37.346Z,98895.72
2022-09-16T09:12:10.474Z,98891.72
2022-09-16T09:13:57.859Z,98884.38
2022-09-16T09:15:47.216Z,98876.34
2022-09-16T09:17:28.074Z,98874.44
2022-09-16T09:19:09.072Z,98876.59
2022-09-16T09:20:48.037Z,98873.44
2022-09-16T09:22:20.383Z,98884.22
2022-09-16T09:24:07.259Z,98883.25
2022-09-16T09:25:45.327Z,98885.72
2022-09-16T09:27:26.409Z,98885.22
2022-09-16T09:29:10.909Z,98883.41
2022-09-16T09:30:53.742Z,98877.44
2022-09-16T09:32:46.051Z,98872.09
2022-09-16T09:34:29.265Z,98873.59
2022-09-16T09:36:05.271Z,98878.88
2022-09-16T09:37:42.763Z,98880.19
2022-09-16T09:39:31.908Z,98879.69
2022-09-16T09:41:10.529Z,98873.78
2022-09-16T09:43:05.109Z,98868.47
2022-09-16T09:44:46.234Z,98872.69
2022-09-16T09:46:23.436Z,98878.84
2022-09-16T09:47:59.515Z,98869.94
2022-09-16T09:49:33.982Z,98882.38
2022-09-16T09:51:13.184Z,98878.34
2022-09-16T09:52:59.955Z,98873.00
2022-09-16T09:54:34.287Z,98877.25
2022-09-16T09:56:18.809Z,98880.09
2022-09-16T09:58:00.773Z,98874.41
2022-09-16T09:59:43.925Z,98875.06
2022-09-16T10:01:17.435Z,98871.16
2022-09-16T10:02:50.163Z,98881.16
2022-09-16T10:04:22.729Z,98883.41
2022-09-16T10:05:54.899Z,98875.22
2022-09-16T10:07:28.677Z,98887.06
2022-09-16T10:09:01.193Z,98885.91
2022-09-16T10:10:34.719Z,98879.94
2022-09-16T10:12:06.879Z,98879.50
2022-09-16T10:13:47.403Z,98877.03
2022-09-16T10:15:24.240Z,98880.78
2022-09-16T10:16:57.593Z,98873.41
2022-09-16T10:18:34.726Z,98868.81
2022-09-16T10:20:23.830Z,98873.13
2022-09-16T10:22:07.990Z,98873.16
2022-09-16T10:23:40.371Z,98864.16
2022-09-16T10:25:23.123Z,98863.47
2022-09-16T10:26:55.264Z,98864.88
2022-09-16T10:28:27.639Z,98866.91
2022-09-16T10:30:13.879Z,98867.53
2022-09-16T10:31:46.693Z,98871.63
2022-09-16T10:33:21.577Z,98866.78
2022-09-16T10:34:54.368Z,98872.91
2022-09-16T10:36:34.012Z,98865.25
2022-09-16T10:38:06.144Z,98867.94
2022-09-16T10:39:38.930Z,98865.91
2022-09-16T10:41:19.798Z,98868.72
2022-09-16T10:42:52.937Z,98865.28
2022-09-16T10:44:28.481Z,98855.34
2022-09-16T10:46:02.065Z,98858.00
2022-09-16T10:47:36.398Z,98861.44
2022-09-16T10:49:12.524Z,98855.28
2022-09-16T10:50:54.576Z,98842.91
2022-09-16T10:52:28.275Z,98845.03
2022-09-16T10:54:02.064Z,98836.16
2022-09-16T10:55:38.647Z,98842.50
2022-09-16T10:57:29.607Z,98840.47
2022-09-16T10:59:06.298Z,98845.41
2022-09-16T11:00:45.984Z,98846.88
2022-09-16T11:02:44.192Z,98838.53
2022-09-16T11:04:22.623Z,98846.22
2022-09-16T11:06:06.795Z,98851.69
2022-09-16T11:07:58.050Z,98851.63
2022-09-16T11:09:35.988Z,98845.94
2022-09-16T11:11:17.343Z,98852.78
2022-09-16T11:13:04.585Z,98855.38
2022-09-16T11:14:36.913Z,98851.72
2022-09-16T11:16:11.580Z,98848.66
2022-09-16T11:17:43.735Z,98846.38
2022-09-16T11:19:15.728Z,98848.28
2022-09-16T11:20:48.080Z,98841.06
2022-09-16T11:22:47.628Z,98841.44
2022-09-16T11:24:52.013Z,98842.00
2022-09-16T11:26:35.447Z,98842.59
2022-09-16T11:28:26.129Z,98831.34
2022-09-16T11:30:14.971Z,98836.66
2022-09-16T11:31:51.990Z,98843.47
2022-09-16T11:33:32.672Z,98842.75
2022-09-16T11:35:04.727Z,98835.03
2022-09-16T11:36:43.203Z,98837.00
2022-09-16T11:38:42.430Z,98843.31
2022-09-16T11:40:24.106Z,98845.47
2022-09-16T11:42:09.885Z,98850.50
2022-09-16T11:43:43.155Z,98849.97
2022-09-16T11:45:36.307Z,98846.78
2022-09-16T11:47:26.676Z,98841.50
2022-09-16T11:49:14.331Z,98835.34
2022-09-16T11:50:46.437Z,98837.44
2022-09-16T11:52:31.355Z,98833.91
2022-09-16T11:54:16.606Z,98822.72
2022-09-16T11:55:58.643Z,98832.44
2022-09-16T11:57:41.934Z,98821.97
2022-09-16T11:59:32.701Z,98828.69
2022-09-16T12:01:20.128Z,98826.38
2022-09-16T12:02:52.250Z,98826.22
2022-09-16T12:04:27.652Z,98820.56
2022-09-16T12:06:04.753Z,98813.50
2022-09-16T12:07:39.873Z,98806.50
2022-09-16T12:09:14.810Z,98805.06
2022-09-16T12:10:49.923Z,98810.00
2022-09-16T12:12:28.970Z,98799.81
2022-09-16T12:14:13.261Z,98795.13
2022-09-16T12:15:57.764Z,98794.53
2022-09-16T12:17:33.133Z,98793.34
2022-09-16T12:19:31.361Z,98786.56
2022-09-16T12:21:08.550Z,98786.13
2022-09-16T12:22:48.769Z,98777.31
2022-09-16T12:24:27.333Z,98774.59
2022-09-16T12:26:18.215Z,98781.53
2022-09-16T12:27:51.231Z,98771.94
2022-09-16T12:29:28.432Z,98780.31
2022-09-16T12:31:08.488Z,98774.72
2022-09-16T12:32:44.175Z,98769.13
2022-09-16T12:34:34.760Z,98760.22
2022-09-16T12:36:08.401Z,98753.38
2022-09-16T12:37:46.710Z,98753.38
2022-09-16T12:39:19.206Z,98750.59
2022-09-16T12:41:00.565Z,98747.84
2022-09-16T12:42:41.051Z,98741.50
2022-09-16T12:44:35.682Z,98749.75
2022-09-16T12:46:08.232Z,98752.47
2022-09-16T12:47:44.172Z,98760.72
2022-09-16T12:49:28.819Z,98755.13
2022-09-16T12:51:21.240Z,98759.22
2022-09-16T12:52:57.337Z,98767.50
2022-09-16T12:55:04.013Z,98772.94
2022-09-16T12:56:50.491Z,98768.75
2022-09-16T12:58:22.828Z,98772.94
2022-09-16T13:00:13.694Z,98768.88
2022-09-16T13:02:12.229Z,98772.44
2022-09-16T13:03:50.295Z,98773.75
2022-09-16T13:05:22.902Z,98770.88
2022-09-16T13:06:58.342Z,98769.97
2022-09-16T13:08:31.487Z,98775.88
2022-09-16T13:10:08.388Z,98761.16
2022-09-16T13:13:52.792Z,98769.22
2022-09-16T13:15:35.272Z,98770.47
2022-09-16T13:17:09.912Z,98756.41
2022-09-16T13:18:42.213Z,98746.56
2022-09-16T13:20:23.773Z,98750.34
2022-09-16T13:22:23.183Z,98754.09
2022-09-16T13:24:04.393Z,98744.03
2022-09-16T13:25:45.642Z,98748.56
2022-09-16T13:27:32.280Z,98750.38
2022-09-16T13:29:23.636Z,98741.88
2022-09-16T13:30:55.906Z,98745.25
2022-09-16T13:32:37.275Z,98746.56
2022-09-16T13:34:15.906Z,98744.44
2022-09-16T13:35:49.796Z,98753.41
2022-09-16T13:37:28.293Z,98742.44
2022-09-16T13:39:02.117Z,98734.16
2022-09-16T13:40:34.329Z,98741.03
2022-09-16T13:42:25.406Z,98739.69
2022-09-16T13:43:58.164Z,98739.72
2022-09-16T13:45:34.497Z,98748.59
2022-09-16T13:47:27.033Z,98740.94
2022-09-16T13:49:05.488Z,98736.75
2022-09-16T13:50:41.334Z,98732.50
2022-09-16T13:52:16.770Z,98733.75
2022-09-16T13:53:50.980Z,98740.56
2022-09-16T13:55:24.742Z,98740.47
2022-09-16T13:57:01.036Z,98734.22
2022-09-16T13:58:49.914Z,98742.38
2022-09-16T14:00:23.968Z,98743.78
2022-09-16T14:02:15.931Z,98738.25
2022-09-16T14:03:53.111Z,98738.19
2022-09-16T14:05:44.949Z,98738.13
2022-09-16T14:07:46.536Z,98731.69
2022-09-16T14:09:27.917Z,98727.31
2022-09-16T14:11:11.450Z,98729.88
2022-09-16T14:12:43.714Z,98729.72
2022-09-16T14:14:45.930Z,98727.63
2022-09-16T14:16:15.410Z,98724.16
2022-09-16T14:17:51.582Z,98724.81
2022-09-16T14:19:26.581Z,98725.41
2022-09-16T14:21:06.128Z,98715.69
2022-09-16T14:22:38.630Z,98719.06
2022-09-16T14:24:13.791Z,98711.41
2022-09-16T14:25:46.223Z,98714.84
2022-09-16T14:27:19.633Z,98708.59
2022-09-16T14:29:01.412Z,98718.13
2022-09-16T14:30:33.802Z,98720.75
2022-09-16T14:32:13.505Z,98725.47
2022-09-16T14:33:56.539Z,98722.78
2022-09-16T14:35:30.819Z,98730.34
2022-09-16T14:37:05.366Z,98728.28
2022-09-16T14:38:46.638Z,98724.09
2022-09-16T14:40:20.836Z,98723.94
2022-09-16T14:41:56.117Z,98732.78
2022-09-16T14:43:28.457Z,98730.56
2022-09-16T14:45:00.677Z,98729.09
2022-09-16T14:46:32.925Z,98739.28
2022-09-16T14:48:07.755Z,98729.47
2022-09-16T14:49:39.891Z,98732.66
2022-09-16T14:51:23.623Z,98724.16
2022-09-16T14:52:57.238Z,98712.09
2022-09-16T14:54:30.904Z,98712.44
2022-09-16T14:56:03.326Z,98711.50
2022-09-16T14:57:35.610Z,98722.97
2022-09-16T14:59:10.182Z,98715.16
2022-09-16T15:00:45.641Z,98714.94
2022-09-16T15:02:37.955Z,98715.38
2022-09-16T15:04:16.098Z,98719.25
2022-09-16T15:05:48.797Z,98722.44
2022-09-16T15:07:50.940Z,98724.25
2022-09-16T15:09:51.950Z,98719.63
2022-09-16T15:11:47.458Z,98711.69
2022-09-16T15:13:30.576Z,98707.22
2022-09-16T15:15:10.638Z,98702.22
2022-09-16T15:16:48.066Z,98701.38
2022-09-16T15:18:24.372Z,98704.63
2022-09-16T15:19:58.121Z,98698.34
2022-09-16T15:21:32.886Z,98701.09
2022-09-16T15:23:10.905Z,98700.94
2022-09-16T15:24:47.562Z,98701.50
2022-09-16T15:26:40.099Z,98699.50
2022-09-16T15:28:19.194Z,98702.38
2022-09-16T15:29:54.290Z,98701.81
2022-09-16T15:31:27.689Z,98699.19
2022-09-16T15:33:00.183Z,98691.81
2022-09-16T15:34:32.835Z,98686.50
2022-09-16T15:36:31.271Z,98681.91
2022-09-16T15:38:13.001Z,98684.88
2022-09-16T15:39:45.435Z,98683.69
2022-09-16T15:41:18.778Z,98676.81
2022-09-16T15:43:09.839Z,98683.72
2022-09-16T15:44:50.154Z,98669.25
2022-09-16T15:46:23.401Z,98665.00
2022-09-16T15:47:57.665Z,98662.78
2022-09-16T15:49:31.782Z,98662.63
2022-09-16T15:51:10.053Z,98669.41
2022-09-16T15:53:01.499Z,98670.66
2022-09-16T15:54:37.530Z,98671.88
2022-09-16T15:56:12.672Z,98665.56
2022-09-16T15:57:46.096Z,98661.97
2022-09-16T15:59:34.055Z,98666.69
2022-09-16T16:01:17.512Z,98663.03
2022-09-16T16:02:57.502Z,98666.91
2022-09-16T16:04:33.705Z,98665.44
2022-09-16T16:06:06.057Z,98668.78
2022-09-16T16:07:43.146Z,98665.31
2022-09-16T16:09:27.801Z,98669.28
2022-09-16T16:11:08.468Z,98669.84
2022-09-16T16:12:41.462Z,98675.97
2022-09-16T16:14:13.545Z,98672.47
2022-09-16T16:15:45.978Z,98672.38
2022-09-16T16:17:20.114Z,98667.50
2022-09-16T16:18:52.240Z,98670.81
2022-09-16T16:20:24.635Z,98672.09
2022-09-16T16:21:57.296Z,98665.13
2022-09-16T16:23:29.784Z,98664.34
2022-09-16T16:25:02.319Z,98658.72
2022-09-16T16:26:34.403Z,98659.97
2022-09-16T16:28:06.800Z,98661.25
2022-09-16T16:29:39.158Z,98656.31
2022-09-16T16:31:11.668Z,98656.84
2022-09-16T16:32:44.734Z,98659.44
2022-09-16T16:34:17.127Z,98664.88
2022-09-16T16:35:49.308Z,98661.28
2022-09-16T16:37:45.077Z,98657.75
2022-09-16T16:39:13.753Z,98655.56
2022-09-16T16:40:49.896Z,98656.84
2022-09-16T16:42:23.225Z,98659.50
2022-09-16T16:43:55.324Z,98666.94
2022-09-16T16:45:27.508Z,98659.97
2022-09-16T16:47:00.458Z,98663.94
2022-09-16T16:48:32.627Z,98669.38
2022-09-16T16:50:04.987Z,98661.06
2022-09-16T16:51:37.233Z,98667.09
2022-09-16T16:53:09.825Z,98664.19
2022-09-16T16:54:43.475Z,98653.16
2022-09-16T16:56:16.145Z,98647.59
2022-09-16T16:57:48.393Z,98648.25
2022-09-16T16:59:21.164Z,98652.22
2022-09-16T17:00:54.263Z,98654.19
2022-09-16T17:02:26.709Z,98664.44
2022-09-16T17:03:59.746Z,98662.94
2022-09-16T17:05:32.250Z,98664.28
2022-09-16T17:07:27.891Z,98667.63
2022-09-16T17:08:56.759Z,98664.13
2022-09-16T17:10:29.000Z,98662.00
2022-09-16T17:12:01.793Z,98661.22
2022-09-16T17:13:33.898Z,98663.97
2022-09-16T17:15:06.282Z,98670.69
2022-09-16T17:16:38.318Z,98668.56
2022-09-16T17:18:10.836Z,98673.25
2022-09-16T17:19:42.847Z,98667.09
2022-09-16T17:21:19.532Z,98669.03
2022-09-16T17:22:51.540Z,98664.88
2022-09-16T17:24:24.012Z,98653.88
2022-09-16T17:25:56.054Z,98659.34
2022-09-16T17:27:29.728Z,98659.25
2022-09-16T17:29:10.632Z,98651.66
2022-09-16T17:30:47.394Z,98652.31
2022-09-16T17:32:19.554Z,98657.66
2022-09-16T17:33:55.345Z,98645.97
2022-09-16T17:35:27.416Z,98650.63
2022-09-16T17:36:59.890Z,98657.44
2022-09-16T17:38:32.118Z,98654.63
2022-09-16T17:40:04.550Z,98654.53
2022-09-16T17:41:36.948Z,98662.59
2022-09-16T17:43:09.627Z,98658.34
2022-09-16T17:44:42.881Z,98655.53
2022-09-16T17:46:17.180Z,98658.16
2022-09-16T17:47:49.315Z,98671.78
2022-09-16T17:49:24.209Z,98672.41
2022-09-16T17:50:56.653Z,98677.78
2022-09-16T17:52:29.485Z,98682.28
2022-09-16T17:54:03.524Z,98684.69
2022-09-16T17:55:35.935Z,98683.03
2022-09-16T17:57:08.050Z,98686.81
2022-09-16T17:58:41.603Z,98704.28
2022-09-16T18:00:14.055Z,98697.16
2022-09-16T18:01:46.653Z,98703.59
2022-09-16T18:03:18.847Z,98707.97
2022-09-16T18:04:51.732Z,98702.88
2022-09-16T18:06:25.504Z,98704.59
2022-09-16T18:07:58.088Z,98700.19
2022-09-16T18:09:30.205Z,98696.56
2022-09-16T18:11:03.145Z,98690.28
2022-09-16T18:12:35.148Z,98700.50
2022-09-16T18:14:08.261Z,98698.41
2022-09-16T18:15:40.355Z,98700.44
2022-09-16T18:17:12.600Z,98703.06
2022-09-16T18:18:45.276Z,98701.56
2022-09-16T18:20:17.758Z,98713.13
2022-09-16T18:21:49.853Z,98719.88
2022-09-16T18:23:22.241Z,98720.41
2022-09-16T18:24:54.313Z,98719.72
2022-09-16T18:26:27.607Z,98735.38
2022-09-16T18:27:59.736Z,98734.66
2022-09-16T18:29:32.040Z,98730.53
2022-09-16T18:31:08.141Z,98732.53
2022-09-16T18:32:40.612Z,98734.56
2022-09-16T18:34:13.185Z,98739.34
2022-09-16T18:35:45.592Z,98743.34
2022-09-16T18:37:17.770Z,98743.34
2022-09-16T18:38:51.119Z,98745.31
2022-09-16T18:40:23.248Z,98754.72
2022-09-16T18:41:56.242Z,98755.34
2022-09-16T18:43:28.576Z,98753.81
2022-09-16T18:45:00.982Z,98754.53
2022-09-16T18:46:38.270Z,98738.75
2022-09-16T18:48:10.404Z,98738.06
2022-09-16T18:49:42.436Z,98744.91
2022-09-16T18:51:17.925Z,98746.94
2022-09-16T18:52:50.046Z,98737.38
2022-09-16T18:54:28.521Z,98744.13
2022-09-16T18:56:00.639Z,98744.81
2022-09-16T18:57:33.407Z,98743.31